Terminal Aerodrome Forecast
Issued by NWS

Home | Current Version | Previous Version | Text Only | Print | Product List | Glossary On
Versions: 1 2 3 4 5 6 7 8 9 10 11 12 13 14 15 16 17 18 19 20 21 22 23 24 25 26 27 28
000
FTUS45 KABQ 280500 RRA
TAFLVS
TAF
KLVS 280544Z 2806/0106 19012G19KT 3SM -SN BR SCT008 OVC012
      TEMPO 2806/2810 1/4SM SN FZFG OVC004
     FM281200 20013KT 1SM -SN BR OVC008
     FM281700 20016G23KT 3SM -SN SCT015 OVC025=

USA.gov is the U.S. government's official web portal to all federal, state and local government web resources and services.